sensor_id;sensor_type;location;lat;lon;timestamp;P1;durP1;ratioP1;P2;durP2;ratioP2
17925;SDS011;9088;55.674;13.354;2023-05-10T00:02:00;0.40;;;0.40;;
17925;SDS011;9088;55.674;13.354;2023-05-10T00:04:27;0.40;;;0.40;;
17925;SDS011;9088;55.674;13.354;2023-05-10T00:06:54;0.50;;;0.50;;
17925;SDS011;9088;55.674;13.354;2023-05-10T00:09:21;0.50;;;0.50;;
17925;SDS011;9088;55.674;13.354;2023-05-10T00:11:48;0.50;;;0.50;;
17925;SDS011;9088;55.674;13.354;2023-05-10T00:14:15;0.50;;;0.50;;
17925;SDS011;9088;55.674;13.354;2023-05-10T00:16:42;0.60;;;0.60;;
17925;SDS011;9088;55.674;13.354;2023-05-10T00:19:10;0.50;;;0.50;;
17925;SDS011;9088;55.674;13.354;2023-05-10T00:21:37;0.60;;;0.60;;
17925;SDS011;9088;55.674;13.354;2023-05-10T00:24:04;0.50;;;0.50;;
17925;SDS011;9088;55.674;13.354;2023-05-10T00:26:32;0.50;;;0.50;;
17925;SDS011;9088;55.674;13.354;2023-05-10T00:28:59;0.60;;;0.60;;
17925;SDS011;9088;55.674;13.354;2023-05-10T00:31:26;0.50;;;0.50;;
17925;SDS011;9088;55.674;13.354;2023-05-10T00:33:53;0.50;;;0.50;;
17925;SDS011;9088;55.674;13.354;2023-05-10T00:36:21;0.50;;;0.50;;
17925;SDS011;9088;55.674;13.354;2023-05-10T00:38:48;0.50;;;0.50;;
17925;SDS011;9088;55.674;13.354;2023-05-10T00:41:15;0.50;;;0.50;;
17925;SDS011;9088;55.674;13.354;2023-05-10T00:43:42;0.50;;;0.50;;
17925;SDS011;9088;55.674;13.354;2023-05-10T00:46:09;0.50;;;0.50;;
17925;SDS011;9088;55.674;13.354;2023-05-10T00:48:37;0.50;;;0.50;;
17925;SDS011;9088;55.674;13.354;2023-05-10T00:51:04;0.40;;;0.40;;
17925;SDS011;9088;55.674;13.354;2023-05-10T00:53:32;0.50;;;0.50;;
17925;SDS011;9088;55.674;13.354;2023-05-10T00:56:01;0.40;;;0.40;;
17925;SDS011;9088;55.674;13.354;2023-05-10T00:58:28;0.50;;;0.50;;
17925;SDS011;9088;55.674;13.354;2023-05-10T01:00:56;0.50;;;0.50;;
17925;SDS011;9088;55.674;13.354;2023-05-10T01:03:23;0.50;;;0.50;;
17925;SDS011;9088;55.674;13.354;2023-05-10T01:05:50;0.50;;;0.50;;
17925;SDS011;9088;55.674;13.354;2023-05-10T01:08:17;0.50;;;0.50;;
17925;SDS011;9088;55.674;13.354;2023-05-10T01:10:45;0.50;;;0.50;;
17925;SDS011;9088;55.674;13.354;2023-05-10T01:13:14;0.50;;;0.50;;
17925;SDS011;9088;55.674;13.354;2023-05-10T01:15:45;0.50;;;0.50;;
17925;SDS011;9088;55.674;13.354;2023-05-10T01:18:13;0.50;;;0.50;;
17925;SDS011;9088;55.674;13.354;2023-05-10T01:20:40;0.50;;;0.50;;
17925;SDS011;9088;55.674;13.354;2023-05-10T01:23:12;0.50;;;0.50;;
17925;SDS011;9088;55.674;13.354;2023-05-10T01:25:55;0.50;;;0.50;;
17925;SDS011;9088;55.674;13.354;2023-05-10T01:28:39;0.50;;;0.50;;
17925;SDS011;9088;55.674;13.354;2023-05-10T01:31:18;0.50;;;0.50;;
17925;SDS011;9088;55.674;13.354;2023-05-10T01:33:50;0.50;;;0.50;;
17925;SDS011;9088;55.674;13.354;2023-05-10T01:36:19;0.50;;;0.50;;
17925;SDS011;9088;55.674;13.354;2023-05-10T01:38:52;0.50;;;0.50;;
17925;SDS011;9088;55.674;13.354;2023-05-10T01:41:32;0.50;;;0.50;;
17925;SDS011;9088;55.674;13.354;2023-05-10T01:44:03;0.50;;;0.50;;
17925;SDS011;9088;55.674;13.354;2023-05-10T01:46:32;0.50;;;0.50;;
17925;SDS011;9088;55.674;13.354;2023-05-10T01:49:03;0.50;;;0.50;;
17925;SDS011;9088;55.674;13.354;2023-05-10T01:51:36;0.50;;;0.50;;
17925;SDS011;9088;55.674;13.354;2023-05-10T01:54:05;0.50;;;0.50;;
17925;SDS011;9088;55.674;13.354;2023-05-10T01:56:33;0.50;;;0.50;;
17925;SDS011;9088;55.674;13.354;2023-05-10T01:59:04;0.50;;;0.50;;
17925;SDS011;9088;55.674;13.354;2023-05-10T02:01:32;0.50;;;0.50;;
17925;SDS011;9088;55.674;13.354;2023-05-10T02:04:00;0.50;;;0.50;;
17925;SDS011;9088;55.674;13.354;2023-05-10T02:06:29;0.50;;;0.50;;
17925;SDS011;9088;55.674;13.354;2023-05-10T02:08:57;0.50;;;0.50;;
17925;SDS011;9088;55.674;13.354;2023-05-10T02:11:24;0.53;;;0.53;;
17925;SDS011;9088;55.674;13.354;2023-05-10T02:13:51;0.50;;;0.50;;
17925;SDS011;9088;55.674;13.354;2023-05-10T02:16:20;0.50;;;0.50;;
17925;SDS011;9088;55.674;13.354;2023-05-10T02:18:49;0.50;;;0.50;;
17925;SDS011;9088;55.674;13.354;2023-05-10T02:21:19;0.50;;;0.50;;
17925;SDS011;9088;55.674;13.354;2023-05-10T02:23:48;0.50;;;0.50;;
17925;SDS011;9088;55.674;13.354;2023-05-10T02:26:17;0.50;;;0.50;;
17925;SDS011;9088;55.674;13.354;2023-05-10T02:28:45;0.50;;;0.50;;
17925;SDS011;9088;55.674;13.354;2023-05-10T02:31:12;0.50;;;0.50;;
17925;SDS011;9088;55.674;13.354;2023-05-10T02:33:40;0.50;;;0.50;;
17925;SDS011;9088;55.674;13.354;2023-05-10T02:36:08;0.50;;;0.50;;
17925;SDS011;9088;55.674;13.354;2023-05-10T02:38:36;0.50;;;0.50;;
17925;SDS011;9088;55.674;13.354;2023-05-10T02:41:04;0.50;;;0.50;;
17925;SDS011;9088;55.674;13.354;2023-05-10T02:43:32;0.60;;;0.60;;
17925;SDS011;9088;55.674;13.354;2023-05-10T02:46:00;0.50;;;0.50;;
17925;SDS011;9088;55.674;13.354;2023-05-10T02:48:27;0.60;;;0.60;;
17925;SDS011;9088;55.674;13.354;2023-05-10T02:50:56;0.60;;;0.60;;
17925;SDS011;9088;55.674;13.354;2023-05-10T02:53:27;0.60;;;0.60;;
17925;SDS011;9088;55.674;13.354;2023-05-10T02:55:57;0.70;;;0.70;;
17925;SDS011;9088;55.674;13.354;2023-05-10T02:58:26;0.60;;;0.60;;
17925;SDS011;9088;55.674;13.354;2023-05-10T03:00:53;0.60;;;0.60;;
17925;SDS011;9088;55.674;13.354;2023-05-10T03:03:20;0.60;;;0.60;;
17925;SDS011;9088;55.674;13.354;2023-05-10T03:05:47;0.60;;;0.60;;
17925;SDS011;9088;55.674;13.354;2023-05-10T03:08:14;0.70;;;0.70;;
17925;SDS011;9088;55.674;13.354;2023-05-10T03:10:45;0.60;;;0.60;;
17925;SDS011;9088;55.674;13.354;2023-05-10T03:13:16;0.70;;;0.70;;
17925;SDS011;9088;55.674;13.354;2023-05-10T03:15:51;0.60;;;0.60;;
17925;SDS011;9088;55.674;13.354;2023-05-10T03:18:22;0.70;;;0.70;;
17925;SDS011;9088;55.674;13.354;2023-05-10T03:20:49;2.50;;;2.40;;
17925;SDS011;9088;55.674;13.354;2023-05-10T03:23:20;2.33;;;2.23;;
17925;SDS011;9088;55.674;13.354;2023-05-10T03:25:48;2.23;;;2.13;;
17925;SDS011;9088;55.674;13.354;2023-05-10T03:28:16;2.30;;;2.20;;
17925;SDS011;9088;55.674;13.354;2023-05-10T03:30:44;2.30;;;2.20;;
17925;SDS011;9088;55.674;13.354;2023-05-10T03:33:13;2.30;;;2.20;;
17925;SDS011;9088;55.674;13.354;2023-05-10T03:35:40;2.40;;;2.30;;
17925;SDS011;9088;55.674;13.354;2023-05-10T03:38:07;2.40;;;2.30;;
17925;SDS011;9088;55.674;13.354;2023-05-10T03:40:34;2.30;;;2.20;;
17925;SDS011;9088;55.674;13.354;2023-05-10T03:43:01;2.30;;;2.20;;
17925;SDS011;9088;55.674;13.354;2023-05-10T03:45:28;2.20;;;2.10;;
17925;SDS011;9088;55.674;13.354;2023-05-10T03:47:55;2.20;;;2.10;;
17925;SDS011;9088;55.674;13.354;2023-05-10T03:50:24;2.40;;;2.30;;
17925;SDS011;9088;55.674;13.354;2023-05-10T03:52:52;2.30;;;2.20;;
17925;SDS011;9088;55.674;13.354;2023-05-10T03:55:19;2.40;;;2.30;;
17925;SDS011;9088;55.674;13.354;2023-05-10T03:57:47;2.10;;;2.00;;
17925;SDS011;9088;55.674;13.354;2023-05-10T04:00:14;2.27;;;2.17;;
17925;SDS011;9088;55.674;13.354;2023-05-10T04:02:41;2.30;;;2.20;;
17925;SDS011;9088;55.674;13.354;2023-05-10T04:05:09;2.20;;;2.10;;
17925;SDS011;9088;55.674;13.354;2023-05-10T04:07:37;2.20;;;2.10;;
17925;SDS011;9088;55.674;13.354;2023-05-10T04:10:04;2.20;;;2.10;;
17925;SDS011;9088;55.674;13.354;2023-05-10T04:12:31;2.20;;;2.10;;
17925;SDS011;9088;55.674;13.354;2023-05-10T04:14:58;2.10;;;2.00;;
17925;SDS011;9088;55.674;13.354;2023-05-10T04:17:26;2.10;;;2.00;;
17925;SDS011;9088;55.674;13.354;2023-05-10T04:19:53;2.10;;;2.00;;
17925;SDS011;9088;55.674;13.354;2023-05-10T04:22:20;2.10;;;2.00;;
17925;SDS011;9088;55.674;13.354;2023-05-10T04:24:48;2.10;;;2.00;;
17925;SDS011;9088;55.674;13.354;2023-05-10T04:27:15;2.13;;;2.03;;
17925;SDS011;9088;55.674;13.354;2023-05-10T04:29:42;2.03;;;1.93;;
17925;SDS011;9088;55.674;13.354;2023-05-10T04:32:09;1.83;;;1.83;;
17925;SDS011;9088;55.674;13.354;2023-05-10T04:34:36;1.90;;;1.90;;
17925;SDS011;9088;55.674;13.354;2023-05-10T04:37:04;2.00;;;1.90;;
17925;SDS011;9088;55.674;13.354;2023-05-10T04:39:32;2.03;;;1.93;;
17925;SDS011;9088;55.674;13.354;2023-05-10T04:42:01;2.10;;;2.00;;
17925;SDS011;9088;55.674;13.354;2023-05-10T04:44:30;2.20;;;2.10;;
17925;SDS011;9088;55.674;13.354;2023-05-10T04:46:57;2.10;;;2.00;;
17925;SDS011;9088;55.674;13.354;2023-05-10T04:49:24;2.00;;;1.90;;
17925;SDS011;9088;55.674;13.354;2023-05-10T04:51:51;2.13;;;2.03;;
17925;SDS011;9088;55.674;13.354;2023-05-10T04:54:18;2.03;;;1.93;;
17925;SDS011;9088;55.674;13.354;2023-05-10T04:56:45;2.00;;;1.90;;
17925;SDS011;9088;55.674;13.354;2023-05-10T04:59:14;2.10;;;2.00;;
17925;SDS011;9088;55.674;13.354;2023-05-10T05:01:41;2.20;;;2.10;;
17925;SDS011;9088;55.674;13.354;2023-05-10T05:04:08;2.20;;;2.10;;
17925;SDS011;9088;55.674;13.354;2023-05-10T05:06:35;2.10;;;2.00;;
17925;SDS011;9088;55.674;13.354;2023-05-10T05:09:02;2.10;;;2.00;;
17925;SDS011;9088;55.674;13.354;2023-05-10T05:11:29;1.77;;;1.77;;
17925;SDS011;9088;55.674;13.354;2023-05-10T05:13:56;1.80;;;1.80;;
17925;SDS011;9088;55.674;13.354;2023-05-10T05:16:26;1.87;;;1.87;;
17925;SDS011;9088;55.674;13.354;2023-05-10T05:18:53;1.90;;;1.90;;
17925;SDS011;9088;55.674;13.354;2023-05-10T05:21:20;1.70;;;1.70;;
17925;SDS011;9088;55.674;13.354;2023-05-10T05:23:48;1.90;;;1.90;;
17925;SDS011;9088;55.674;13.354;2023-05-10T05:26:15;1.70;;;1.70;;
17925;SDS011;9088;55.674;13.354;2023-05-10T05:28:43;2.00;;;1.90;;
17925;SDS011;9088;55.674;13.354;2023-05-10T05:31:10;1.73;;;1.73;;
17925;SDS011;9088;55.674;13.354;2023-05-10T05:33:38;1.83;;;1.83;;
17925;SDS011;9088;55.674;13.354;2023-05-10T05:36:05;1.80;;;1.80;;
17925;SDS011;9088;55.674;13.354;2023-05-10T05:38:32;2.00;;;1.90;;
17925;SDS011;9088;55.674;13.354;2023-05-10T05:41:00;2.00;;;1.90;;
17925;SDS011;9088;55.674;13.354;2023-05-10T05:43:27;2.10;;;2.00;;
17925;SDS011;9088;55.674;13.354;2023-05-10T05:45:54;1.80;;;1.80;;
17925;SDS011;9088;55.674;13.354;2023-05-10T05:48:22;1.70;;;1.70;;
17925;SDS011;9088;55.674;13.354;2023-05-10T05:50:51;1.70;;;1.70;;
17925;SDS011;9088;55.674;13.354;2023-05-10T05:53:20;2.10;;;2.00;;
17925;SDS011;9088;55.674;13.354;2023-05-10T05:55:51;2.10;;;2.00;;
17925;SDS011;9088;55.674;13.354;2023-05-10T05:58:19;2.10;;;2.00;;
17925;SDS011;9088;55.674;13.354;2023-05-10T06:00:47;1.80;;;1.80;;
17925;SDS011;9088;55.674;13.354;2023-05-10T06:03:14;1.70;;;1.70;;
17925;SDS011;9088;55.674;13.354;2023-05-10T06:05:41;1.90;;;1.90;;
17925;SDS011;9088;55.674;13.354;2023-05-10T06:08:09;1.80;;;1.80;;
17925;SDS011;9088;55.674;13.354;2023-05-10T06:10:36;2.10;;;2.00;;
17925;SDS011;9088;55.674;13.354;2023-05-10T06:13:03;1.80;;;1.80;;
17925;SDS011;9088;55.674;13.354;2023-05-10T06:15:34;1.70;;;1.70;;
17925;SDS011;9088;55.674;13.354;2023-05-10T06:18:01;1.67;;;1.67;;
17925;SDS011;9088;55.674;13.354;2023-05-10T06:20:28;1.90;;;1.90;;
17925;SDS011;9088;55.674;13.354;2023-05-10T06:22:56;2.00;;;1.90;;
17925;SDS011;9088;55.674;13.354;2023-05-10T06:25:24;2.07;;;1.97;;
17925;SDS011;9088;55.674;13.354;2023-05-10T06:27:51;2.00;;;1.90;;
17925;SDS011;9088;55.674;13.354;2023-05-10T06:30:23;1.80;;;1.80;;
17925;SDS011;9088;55.674;13.354;2023-05-10T06:32:52;2.00;;;1.90;;
17925;SDS011;9088;55.674;13.354;2023-05-10T06:35:19;1.80;;;1.80;;
17925;SDS011;9088;55.674;13.354;2023-05-10T06:37:46;2.00;;;1.90;;
17925;SDS011;9088;55.674;13.354;2023-05-10T06:40:14;1.80;;;1.80;;
17925;SDS011;9088;55.674;13.354;2023-05-10T06:42:42;1.90;;;1.90;;
17925;SDS011;9088;55.674;13.354;2023-05-10T06:45:10;2.10;;;2.00;;
17925;SDS011;9088;55.674;13.354;2023-05-10T06:47:38;1.90;;;1.90;;
17925;SDS011;9088;55.674;13.354;2023-05-10T06:50:05;2.10;;;2.00;;
17925;SDS011;9088;55.674;13.354;2023-05-10T06:52:33;2.10;;;2.00;;
17925;SDS011;9088;55.674;13.354;2023-05-10T06:55:00;1.80;;;1.80;;
17925;SDS011;9088;55.674;13.354;2023-05-10T06:57:27;1.67;;;1.67;;
17925;SDS011;9088;55.674;13.354;2023-05-10T06:59:55;1.80;;;1.80;;
17925;SDS011;9088;55.674;13.354;2023-05-10T07:02:22;1.70;;;1.70;;
17925;SDS011;9088;55.674;13.354;2023-05-10T07:04:49;1.80;;;1.80;;
17925;SDS011;9088;55.674;13.354;2023-05-10T07:07:17;1.80;;;1.80;;
17925;SDS011;9088;55.674;13.354;2023-05-10T07:09:44;1.80;;;1.80;;
17925;SDS011;9088;55.674;13.354;2023-05-10T07:12:11;1.70;;;1.70;;
17925;SDS011;9088;55.674;13.354;2023-05-10T07:14:38;1.70;;;1.70;;
17925;SDS011;9088;55.674;13.354;2023-05-10T07:17:07;1.70;;;1.70;;
17925;SDS011;9088;55.674;13.354;2023-05-10T07:19:34;1.70;;;1.70;;
17925;SDS011;9088;55.674;13.354;2023-05-10T07:22:01;1.77;;;1.77;;
17925;SDS011;9088;55.674;13.354;2023-05-10T07:24:28;1.70;;;1.70;;
17925;SDS011;9088;55.674;13.354;2023-05-10T07:26:56;1.70;;;1.70;;
17925;SDS011;9088;55.674;13.354;2023-05-10T07:29:23;1.70;;;1.70;;
17925;SDS011;9088;55.674;13.354;2023-05-10T07:31:50;1.70;;;1.70;;
17925;SDS011;9088;55.674;13.354;2023-05-10T07:34:18;1.70;;;1.70;;
17925;SDS011;9088;55.674;13.354;2023-05-10T07:36:45;1.50;;;1.50;;
17925;SDS011;9088;55.674;13.354;2023-05-10T07:39:12;1.70;;;1.70;;
17925;SDS011;9088;55.674;13.354;2023-05-10T07:41:39;1.60;;;1.60;;
17925;SDS011;9088;55.674;13.354;2023-05-10T07:44:07;1.70;;;1.70;;
17925;SDS011;9088;55.674;13.354;2023-05-10T07:46:34;1.70;;;1.70;;
17925;SDS011;9088;55.674;13.354;2023-05-10T07:49:01;1.60;;;1.60;;
17925;SDS011;9088;55.674;13.354;2023-05-10T07:51:29;1.80;;;1.80;;
17925;SDS011;9088;55.674;13.354;2023-05-10T07:53:56;1.80;;;1.80;;
17925;SDS011;9088;55.674;13.354;2023-05-10T07:56:24;1.80;;;1.80;;
17925;SDS011;9088;55.674;13.354;2023-05-10T07:58:54;1.70;;;1.70;;
17925;SDS011;9088;55.674;13.354;2023-05-10T08:01:21;1.70;;;1.70;;
17925;SDS011;9088;55.674;13.354;2023-05-10T08:03:49;1.70;;;1.70;;
17925;SDS011;9088;55.674;13.354;2023-05-10T08:06:18;1.63;;;1.63;;
17925;SDS011;9088;55.674;13.354;2023-05-10T08:08:46;1.80;;;1.80;;
17925;SDS011;9088;55.674;13.354;2023-05-10T08:11:15;1.70;;;1.70;;
17925;SDS011;9088;55.674;13.354;2023-05-10T08:13:42;1.80;;;1.80;;
17925;SDS011;9088;55.674;13.354;2023-05-10T08:16:09;1.80;;;1.80;;
17925;SDS011;9088;55.674;13.354;2023-05-10T08:18:36;1.80;;;1.80;;
17925;SDS011;9088;55.674;13.354;2023-05-10T08:21:03;1.67;;;1.67;;
17925;SDS011;9088;55.674;13.354;2023-05-10T08:23:30;1.60;;;1.60;;
17925;SDS011;9088;55.674;13.354;2023-05-10T08:26:00;1.60;;;1.60;;
17925;SDS011;9088;55.674;13.354;2023-05-10T08:28:27;1.60;;;1.60;;
17925;SDS011;9088;55.674;13.354;2023-05-10T08:30:55;1.60;;;1.60;;
17925;SDS011;9088;55.674;13.354;2023-05-10T08:33:22;1.57;;;1.57;;
17925;SDS011;9088;55.674;13.354;2023-05-10T08:35:49;1.70;;;1.70;;
17925;SDS011;9088;55.674;13.354;2023-05-10T08:38:17;1.60;;;1.60;;
17925;SDS011;9088;55.674;13.354;2023-05-10T08:40:44;1.70;;;1.70;;
17925;SDS011;9088;55.674;13.354;2023-05-10T08:43:13;1.70;;;1.70;;
17925;SDS011;9088;55.674;13.354;2023-05-10T08:45:41;1.50;;;1.50;;
17925;SDS011;9088;55.674;13.354;2023-05-10T08:48:10;1.80;;;1.80;;
17925;SDS011;9088;55.674;13.354;2023-05-10T08:50:38;1.80;;;1.80;;
17925;SDS011;9088;55.674;13.354;2023-05-10T08:53:06;1.77;;;1.77;;
17925;SDS011;9088;55.674;13.354;2023-05-10T08:55:36;1.80;;;1.80;;
17925;SDS011;9088;55.674;13.354;2023-05-10T08:58:03;1.80;;;1.80;;
17925;SDS011;9088;55.674;13.354;2023-05-10T09:00:32;1.60;;;1.60;;
17925;SDS011;9088;55.674;13.354;2023-05-10T09:03:00;1.70;;;1.70;;
17925;SDS011;9088;55.674;13.354;2023-05-10T09:05:28;1.80;;;1.80;;
17925;SDS011;9088;55.674;13.354;2023-05-10T09:07:57;1.80;;;1.80;;
17925;SDS011;9088;55.674;13.354;2023-05-10T09:10:25;1.70;;;1.70;;
17925;SDS011;9088;55.674;13.354;2023-05-10T09:12:53;1.80;;;1.80;;
17925;SDS011;9088;55.674;13.354;2023-05-10T09:15:20;1.70;;;1.70;;
17925;SDS011;9088;55.674;13.354;2023-05-10T09:17:49;1.80;;;1.80;;
17925;SDS011;9088;55.674;13.354;2023-05-10T09:20:16;1.70;;;1.70;;
17925;SDS011;9088;55.674;13.354;2023-05-10T09:22:43;1.70;;;1.70;;
17925;SDS011;9088;55.674;13.354;2023-05-10T09:25:12;1.60;;;1.60;;
17925;SDS011;9088;55.674;13.354;2023-05-10T09:27:39;1.77;;;1.77;;
17925;SDS011;9088;55.674;13.354;2023-05-10T09:30:07;1.70;;;1.70;;
17925;SDS011;9088;55.674;13.354;2023-05-10T09:32:37;1.80;;;1.80;;
17925;SDS011;9088;55.674;13.354;2023-05-10T09:35:10;1.77;;;1.77;;
17925;SDS011;9088;55.674;13.354;2023-05-10T09:37:38;1.70;;;1.70;;
17925;SDS011;9088;55.674;13.354;2023-05-10T09:40:07;1.60;;;1.60;;
17925;SDS011;9088;55.674;13.354;2023-05-10T09:42:34;1.60;;;1.60;;
17925;SDS011;9088;55.674;13.354;2023-05-10T09:45:02;1.70;;;1.70;;
17925;SDS011;9088;55.674;13.354;2023-05-10T09:47:31;1.70;;;1.70;;
17925;SDS011;9088;55.674;13.354;2023-05-10T09:49:58;1.70;;;1.70;;
17925;SDS011;9088;55.674;13.354;2023-05-10T09:52:29;1.70;;;1.70;;
17925;SDS011;9088;55.674;13.354;2023-05-10T09:54:59;1.90;;;1.90;;
17925;SDS011;9088;55.674;13.354;2023-05-10T09:57:26;1.70;;;1.70;;
17925;SDS011;9088;55.674;13.354;2023-05-10T09:59:54;1.63;;;1.63;;
17925;SDS011;9088;55.674;13.354;2023-05-10T10:02:27;1.70;;;1.70;;
17925;SDS011;9088;55.674;13.354;2023-05-10T10:04:55;1.70;;;1.70;;
17925;SDS011;9088;55.674;13.354;2023-05-10T10:07:23;1.83;;;1.83;;
17925;SDS011;9088;55.674;13.354;2023-05-10T10:09:52;1.77;;;1.77;;
17925;SDS011;9088;55.674;13.354;2023-05-10T10:12:19;1.70;;;1.70;;
17925;SDS011;9088;55.674;13.354;2023-05-10T10:14:46;1.63;;;1.63;;
17925;SDS011;9088;55.674;13.354;2023-05-10T10:17:15;1.70;;;1.70;;
17925;SDS011;9088;55.674;13.354;2023-05-10T10:19:42;1.80;;;1.80;;
17925;SDS011;9088;55.674;13.354;2023-05-10T10:22:09;1.70;;;1.70;;
17925;SDS011;9088;55.674;13.354;2023-05-10T10:24:37;1.63;;;1.63;;
17925;SDS011;9088;55.674;13.354;2023-05-10T10:27:11;1.60;;;1.60;;
17925;SDS011;9088;55.674;13.354;2023-05-10T10:29:42;1.73;;;1.73;;
17925;SDS011;9088;55.674;13.354;2023-05-10T10:32:12;1.70;;;1.70;;
17925;SDS011;9088;55.674;13.354;2023-05-10T10:34:45;1.80;;;1.80;;
17925;SDS011;9088;55.674;13.354;2023-05-10T10:37:12;1.70;;;1.70;;
17925;SDS011;9088;55.674;13.354;2023-05-10T10:39:39;1.80;;;1.80;;
17925;SDS011;9088;55.674;13.354;2023-05-10T10:42:06;1.70;;;1.70;;
17925;SDS011;9088;55.674;13.354;2023-05-10T10:44:35;1.80;;;1.80;;
17925;SDS011;9088;55.674;13.354;2023-05-10T10:50:02;1.80;;;1.80;;
17925;SDS011;9088;55.674;13.354;2023-05-10T10:52:33;1.80;;;1.80;;
17925;SDS011;9088;55.674;13.354;2023-05-10T10:55:01;1.70;;;1.70;;
17925;SDS011;9088;55.674;13.354;2023-05-10T10:57:31;1.73;;;1.73;;
17925;SDS011;9088;55.674;13.354;2023-05-10T11:02:45;1.80;;;1.80;;
17925;SDS011;9088;55.674;13.354;2023-05-10T11:05:33;1.73;;;1.73;;
17925;SDS011;9088;55.674;13.354;2023-05-10T11:08:06;1.70;;;1.70;;
17925;SDS011;9088;55.674;13.354;2023-05-10T11:10:33;1.70;;;1.70;;
17925;SDS011;9088;55.674;13.354;2023-05-10T11:13:01;1.80;;;1.80;;
17925;SDS011;9088;55.674;13.354;2023-05-10T11:15:29;1.70;;;1.70;;
17925;SDS011;9088;55.674;13.354;2023-05-10T11:17:57;1.80;;;1.80;;
17925;SDS011;9088;55.674;13.354;2023-05-10T11:20:27;1.70;;;1.70;;
17925;SDS011;9088;55.674;13.354;2023-05-10T11:23:00;1.70;;;1.70;;
17925;SDS011;9088;55.674;13.354;2023-05-10T11:25:40;1.80;;;1.80;;
17925;SDS011;9088;55.674;13.354;2023-05-10T11:28:07;2.10;;;2.00;;
17925;SDS011;9088;55.674;13.354;2023-05-10T11:30:35;1.80;;;1.80;;
17925;SDS011;9088;55.674;13.354;2023-05-10T11:33:03;2.00;;;1.90;;
17925;SDS011;9088;55.674;13.354;2023-05-10T11:35:31;1.90;;;1.90;;
17925;SDS011;9088;55.674;13.354;2023-05-10T11:38:04;2.03;;;1.93;;
17925;SDS011;9088;55.674;13.354;2023-05-10T11:40:31;1.70;;;1.70;;
17925;SDS011;9088;55.674;13.354;2023-05-10T11:42:59;1.70;;;1.70;;
17925;SDS011;9088;55.674;13.354;2023-05-10T11:45:26;2.00;;;1.90;;
17925;SDS011;9088;55.674;13.354;2023-05-10T11:47:54;2.00;;;1.90;;
17925;SDS011;9088;55.674;13.354;2023-05-10T11:50:22;1.80;;;1.80;;
17925;SDS011;9088;55.674;13.354;2023-05-10T11:52:52;1.70;;;1.70;;
17925;SDS011;9088;55.674;13.354;2023-05-10T11:55:20;1.80;;;1.80;;
17925;SDS011;9088;55.674;13.354;2023-05-10T11:57:47;1.80;;;1.80;;
17925;SDS011;9088;55.674;13.354;2023-05-10T12:00:14;1.70;;;1.70;;
17925;SDS011;9088;55.674;13.354;2023-05-10T12:02:41;2.00;;;1.90;;
17925;SDS011;9088;55.674;13.354;2023-05-10T12:05:08;1.90;;;1.90;;
17925;SDS011;9088;55.674;13.354;2023-05-10T12:07:37;2.00;;;1.90;;
17925;SDS011;9088;55.674;13.354;2023-05-10T12:10:05;1.83;;;1.83;;
17925;SDS011;9088;55.674;13.354;2023-05-10T12:12:39;1.90;;;1.90;;
17925;SDS011;9088;55.674;13.354;2023-05-10T12:15:10;2.10;;;2.00;;
17925;SDS011;9088;55.674;13.354;2023-05-10T12:17:38;1.93;;;1.90;;
17925;SDS011;9088;55.674;13.354;2023-05-10T12:20:15;2.10;;;2.00;;
17925;SDS011;9088;55.674;13.354;2023-05-10T12:22:48;1.80;;;1.80;;
17925;SDS011;9088;55.674;13.354;2023-05-10T12:25:16;1.90;;;1.90;;
17925;SDS011;9088;55.674;13.354;2023-05-10T12:27:53;1.90;;;1.90;;
17925;SDS011;9088;55.674;13.354;2023-05-10T12:30:21;2.00;;;1.90;;
17925;SDS011;9088;55.674;13.354;2023-05-10T12:32:49;1.70;;;1.70;;
17925;SDS011;9088;55.674;13.354;2023-05-10T12:35:16;1.80;;;1.80;;
17925;SDS011;9088;55.674;13.354;2023-05-10T12:37:45;1.70;;;1.70;;
17925;SDS011;9088;55.674;13.354;2023-05-10T12:40:14;1.80;;;1.80;;
17925;SDS011;9088;55.674;13.354;2023-05-10T12:42:41;1.77;;;1.77;;
17925;SDS011;9088;55.674;13.354;2023-05-10T12:45:09;2.00;;;1.90;;
17925;SDS011;9088;55.674;13.354;2023-05-10T12:47:37;1.83;;;1.83;;
17925;SDS011;9088;55.674;13.354;2023-05-10T12:50:04;1.80;;;1.80;;
17925;SDS011;9088;55.674;13.354;2023-05-10T12:52:32;1.80;;;1.80;;
17925;SDS011;9088;55.674;13.354;2023-05-10T12:54:59;2.00;;;1.90;;
17925;SDS011;9088;55.674;13.354;2023-05-10T12:57:27;1.80;;;1.80;;
17925;SDS011;9088;55.674;13.354;2023-05-10T12:59:54;2.00;;;1.90;;
17925;SDS011;9088;55.674;13.354;2023-05-10T13:02:21;1.83;;;1.83;;
17925;SDS011;9088;55.674;13.354;2023-05-10T13:04:49;1.90;;;1.90;;
17925;SDS011;9088;55.674;13.354;2023-05-10T13:07:16;1.67;;;1.67;;
17925;SDS011;9088;55.674;13.354;2023-05-10T13:09:43;1.80;;;1.80;;
17925;SDS011;9088;55.674;13.354;2023-05-10T13:12:10;1.80;;;1.80;;
17925;SDS011;9088;55.674;13.354;2023-05-10T13:14:38;2.00;;;1.90;;
17925;SDS011;9088;55.674;13.354;2023-05-10T13:17:06;2.10;;;2.00;;
17925;SDS011;9088;55.674;13.354;2023-05-10T13:19:33;1.77;;;1.77;;
17925;SDS011;9088;55.674;13.354;2023-05-10T13:22:00;2.20;;;2.10;;
17925;SDS011;9088;55.674;13.354;2023-05-10T13:24:27;1.80;;;1.80;;
17925;SDS011;9088;55.674;13.354;2023-05-10T13:26:54;2.00;;;1.90;;
17925;SDS011;9088;55.674;13.354;2023-05-10T13:29:21;2.10;;;2.00;;
17925;SDS011;9088;55.674;13.354;2023-05-10T13:31:52;2.10;;;2.00;;
17925;SDS011;9088;55.674;13.354;2023-05-10T13:34:19;1.90;;;1.90;;
17925;SDS011;9088;55.674;13.354;2023-05-10T13:36:46;2.10;;;2.00;;
17925;SDS011;9088;55.674;13.354;2023-05-10T13:39:13;1.80;;;1.80;;
17925;SDS011;9088;55.674;13.354;2023-05-10T13:41:41;1.80;;;1.80;;
17925;SDS011;9088;55.674;13.354;2023-05-10T13:44:08;1.67;;;1.67;;
17925;SDS011;9088;55.674;13.354;2023-05-10T13:46:35;1.70;;;1.70;;
17925;SDS011;9088;55.674;13.354;2023-05-10T13:49:04;1.80;;;1.80;;
17925;SDS011;9088;55.674;13.354;2023-05-10T13:51:32;1.80;;;1.80;;
17925;SDS011;9088;55.674;13.354;2023-05-10T13:53:59;1.70;;;1.70;;
17925;SDS011;9088;55.674;13.354;2023-05-10T13:56:26;1.80;;;1.80;;
17925;SDS011;9088;55.674;13.354;2023-05-10T13:58:53;1.70;;;1.70;;
17925;SDS011;9088;55.674;13.354;2023-05-10T14:01:20;1.80;;;1.80;;
17925;SDS011;9088;55.674;13.354;2023-05-10T14:03:48;1.70;;;1.70;;
17925;SDS011;9088;55.674;13.354;2023-05-10T14:06:16;1.98;;;1.90;;
17925;SDS011;9088;55.674;13.354;2023-05-10T14:08:43;1.70;;;1.70;;
17925;SDS011;9088;55.674;13.354;2023-05-10T14:11:10;1.67;;;1.67;;
17925;SDS011;9088;55.674;13.354;2023-05-10T14:13:37;1.67;;;1.67;;
17925;SDS011;9088;55.674;13.354;2023-05-10T14:16:05;1.87;;;1.87;;
17925;SDS011;9088;55.674;13.354;2023-05-10T14:18:32;2.00;;;1.90;;
17925;SDS011;9088;55.674;13.354;2023-05-10T14:20:59;1.77;;;1.77;;
17925;SDS011;9088;55.674;13.354;2023-05-10T14:23:27;1.80;;;1.80;;
17925;SDS011;9088;55.674;13.354;2023-05-10T14:25:55;1.70;;;1.70;;
17925;SDS011;9088;55.674;13.354;2023-05-10T14:28:22;2.00;;;1.90;;
17925;SDS011;9088;55.674;13.354;2023-05-10T14:30:50;1.80;;;1.80;;
17925;SDS011;9088;55.674;13.354;2023-05-10T14:33:17;1.93;;;1.90;;
17925;SDS011;9088;55.674;13.354;2023-05-10T14:35:44;1.80;;;1.80;;
17925;SDS011;9088;55.674;13.354;2023-05-10T14:38:11;1.90;;;1.90;;
17925;SDS011;9088;55.674;13.354;2023-05-10T14:40:39;2.00;;;1.90;;
17925;SDS011;9088;55.674;13.354;2023-05-10T14:43:07;2.07;;;1.97;;
17925;SDS011;9088;55.674;13.354;2023-05-10T14:45:34;2.10;;;2.00;;
17925;SDS011;9088;55.674;13.354;2023-05-10T14:48:01;1.73;;;1.73;;
17925;SDS011;9088;55.674;13.354;2023-05-10T14:50:29;2.20;;;2.10;;
17925;SDS011;9088;55.674;13.354;2023-05-10T14:52:56;1.83;;;1.83;;
17925;SDS011;9088;55.674;13.354;2023-05-10T14:55:24;2.10;;;2.00;;
17925;SDS011;9088;55.674;13.354;2023-05-10T14:57:52;1.83;;;1.83;;
17925;SDS011;9088;55.674;13.354;2023-05-10T15:00:20;1.97;;;1.90;;